sensor_id;sensor_type;location;lat;lon;timestamp;temperature;humidity
31263;DHT22;17892;52.080;9.006;2023-02-01T00:02:00;5.50;99.90
31263;DHT22;17892;52.080;9.006;2023-02-01T00:04:27;5.40;99.90
31263;DHT22;17892;52.080;9.006;2023-02-01T00:06:52;5.40;99.90
31263;DHT22;17892;52.080;9.006;2023-02-01T00:09:18;5.40;99.90
31263;DHT22;17892;52.080;9.006;2023-02-01T00:11:44;5.40;99.90
31263;DHT22;17892;52.080;9.006;2023-02-01T00:14:10;5.40;99.90
31263;DHT22;17892;52.080;9.006;2023-02-01T00:16:36;5.40;99.90
31263;DHT22;17892;52.080;9.006;2023-02-01T00:19:05;5.40;99.90
31263;DHT22;17892;52.080;9.006;2023-02-01T00:21:32;5.40;99.90
31263;DHT22;17892;52.080;9.006;2023-02-01T00:23:59;5.40;99.90
31263;DHT22;17892;52.080;9.006;2023-02-01T00:26:34;5.40;99.90
31263;DHT22;17892;52.080;9.006;2023-02-01T00:29:18;5.40;99.90
31263;DHT22;17892;52.080;9.006;2023-02-01T00:31:45;5.50;99.90
31263;DHT22;17892;52.080;9.006;2023-02-01T00:34:14;5.50;99.90
31263;DHT22;17892;52.080;9.006;2023-02-01T00:36:41;5.50;99.90
31263;DHT22;17892;52.080;9.006;2023-02-01T00:39:08;5.50;99.90
31263;DHT22;17892;52.080;9.006;2023-02-01T00:41:34;5.50;99.90
31263;DHT22;17892;52.080;9.006;2023-02-01T00:44:00;5.50;99.90
31263;DHT22;17892;52.080;9.006;2023-02-01T00:46:27;5.50;99.90
31263;DHT22;17892;52.080;9.006;2023-02-01T00:48:53;5.60;99.90
31263;DHT22;17892;52.080;9.006;2023-02-01T00:51:21;5.60;99.90
31263;DHT22;17892;52.080;9.006;2023-02-01T00:53:49;5.60;99.90
31263;DHT22;17892;52.080;9.006;2023-02-01T00:56:15;5.60;99.90
31263;DHT22;17892;52.080;9.006;2023-02-01T00:58:41;5.60;99.90
31263;DHT22;17892;52.080;9.006;2023-02-01T01:03:59;5.60;99.90
31263;DHT22;17892;52.080;9.006;2023-02-01T01:06:30;5.70;99.90
31263;DHT22;17892;52.080;9.006;2023-02-01T01:08:59;5.70;99.90
31263;DHT22;17892;52.080;9.006;2023-02-01T01:11:32;5.70;99.90
31263;DHT22;17892;52.080;9.006;2023-02-01T01:14:00;5.70;99.90
31263;DHT22;17892;52.080;9.006;2023-02-01T01:16:28;5.70;99.90
31263;DHT22;17892;52.080;9.006;2023-02-01T01:18:55;5.70;99.90
31263;DHT22;17892;52.080;9.006;2023-02-01T01:21:21;5.70;99.90
31263;DHT22;17892;52.080;9.006;2023-02-01T01:23:47;5.70;99.90
31263;DHT22;17892;52.080;9.006;2023-02-01T01:26:16;5.70;99.90
31263;DHT22;17892;52.080;9.006;2023-02-01T01:28:43;5.70;99.90
31263;DHT22;17892;52.080;9.006;2023-02-01T01:31:10;5.80;99.90
31263;DHT22;17892;52.080;9.006;2023-02-01T01:33:37;5.80;99.90
31263;DHT22;17892;52.080;9.006;2023-02-01T01:36:05;5.80;99.90
31263;DHT22;17892;52.080;9.006;2023-02-01T01:38:31;5.80;99.90
31263;DHT22;17892;52.080;9.006;2023-02-01T01:40:57;5.80;99.90
31263;DHT22;17892;52.080;9.006;2023-02-01T01:43:23;5.90;99.90
31263;DHT22;17892;52.080;9.006;2023-02-01T01:45:49;5.90;99.90
31263;DHT22;17892;52.080;9.006;2023-02-01T01:48:24;5.90;99.90
31263;DHT22;17892;52.080;9.006;2023-02-01T01:51:07;5.90;99.90
31263;DHT22;17892;52.080;9.006;2023-02-01T01:53:41;5.90;99.90
31263;DHT22;17892;52.080;9.006;2023-02-01T01:56:10;5.90;99.90
31263;DHT22;17892;52.080;9.006;2023-02-01T01:58:37;5.90;99.90
31263;DHT22;17892;52.080;9.006;2023-02-01T02:01:03;6.00;99.90
31263;DHT22;17892;52.080;9.006;2023-02-01T02:03:35;6.00;99.90
31263;DHT22;17892;52.080;9.006;2023-02-01T02:06:05;6.00;99.90
31263;DHT22;17892;52.080;9.006;2023-02-01T02:08:40;6.00;99.90
31263;DHT22;17892;52.080;9.006;2023-02-01T02:11:06;6.00;99.90
31263;DHT22;17892;52.080;9.006;2023-02-01T02:13:35;6.00;99.90
31263;DHT22;17892;52.080;9.006;2023-02-01T02:25:20;6.10;99.90
31263;DHT22;17892;52.080;9.006;2023-02-01T02:28:11;6.20;99.90
31263;DHT22;17892;52.080;9.006;2023-02-01T02:31:12;6.20;99.90
31263;DHT22;17892;52.080;9.006;2023-02-01T02:42:51;6.20;99.90
31263;DHT22;17892;52.080;9.006;2023-02-01T02:45:43;6.30;99.90
31263;DHT22;17892;52.080;9.006;2023-02-01T02:49:05;6.30;99.90
31263;DHT22;17892;52.080;9.006;2023-02-01T02:51:52;6.30;99.90
31263;DHT22;17892;52.080;9.006;2023-02-01T02:54:46;6.30;99.90
31263;DHT22;17892;52.080;9.006;2023-02-01T02:57:28;6.30;99.90
31263;DHT22;17892;52.080;9.006;2023-02-01T03:00:27;6.40;99.90
31263;DHT22;17892;52.080;9.006;2023-02-01T03:03:15;6.40;99.90
31263;DHT22;17892;52.080;9.006;2023-02-01T03:05:59;6.40;99.90
31263;DHT22;17892;52.080;9.006;2023-02-01T03:08:27;6.40;99.90
31263;DHT22;17892;52.080;9.006;2023-02-01T03:11:00;6.40;99.90
31263;DHT22;17892;52.080;9.006;2023-02-01T03:13:45;6.40;99.90
31263;DHT22;17892;52.080;9.006;2023-02-01T03:19:14;6.50;99.90
31263;DHT22;17892;52.080;9.006;2023-02-01T03:22:13;6.50;99.90
31263;DHT22;17892;52.080;9.006;2023-02-01T03:24:47;6.60;99.90
31263;DHT22;17892;52.080;9.006;2023-02-01T03:27:27;6.60;99.90
31263;DHT22;17892;52.080;9.006;2023-02-01T03:30:11;6.60;99.90
31263;DHT22;17892;52.080;9.006;2023-02-01T03:32:44;6.60;99.90
31263;DHT22;17892;52.080;9.006;2023-02-01T03:41:11;6.60;99.90
31263;DHT22;17892;52.080;9.006;2023-02-01T03:49:38;6.60;99.90
31263;DHT22;17892;52.080;9.006;2023-02-01T03:52:08;6.70;99.90
31263;DHT22;17892;52.080;9.006;2023-02-01T03:54:39;6.60;99.90
31263;DHT22;17892;52.080;9.006;2023-02-01T03:57:11;6.60;99.90
31263;DHT22;17892;52.080;9.006;2023-02-01T03:59:43;6.70;99.90
31263;DHT22;17892;52.080;9.006;2023-02-01T04:02:10;6.70;99.90
31263;DHT22;17892;52.080;9.006;2023-02-01T04:04:36;6.70;99.90
31263;DHT22;17892;52.080;9.006;2023-02-01T04:07:02;6.70;99.90
31263;DHT22;17892;52.080;9.006;2023-02-01T04:09:28;6.70;99.90
31263;DHT22;17892;52.080;9.006;2023-02-01T04:11:54;6.70;99.90
31263;DHT22;17892;52.080;9.006;2023-02-01T04:14:19;6.70;99.90
31263;DHT22;17892;52.080;9.006;2023-02-01T04:16:45;6.70;99.90
31263;DHT22;17892;52.080;9.006;2023-02-01T04:19:11;6.70;99.90
31263;DHT22;17892;52.080;9.006;2023-02-01T04:21:37;6.70;99.90
31263;DHT22;17892;52.080;9.006;2023-02-01T04:24:03;6.70;99.90
31263;DHT22;17892;52.080;9.006;2023-02-01T04:26:29;6.70;99.90
31263;DHT22;17892;52.080;9.006;2023-02-01T04:28:55;6.70;99.90
31263;DHT22;17892;52.080;9.006;2023-02-01T04:31:20;6.70;99.90
31263;DHT22;17892;52.080;9.006;2023-02-01T04:33:53;6.70;99.90
31263;DHT22;17892;52.080;9.006;2023-02-01T04:36:21;6.70;99.90
31263;DHT22;17892;52.080;9.006;2023-02-01T04:38:50;6.60;99.90
31263;DHT22;17892;52.080;9.006;2023-02-01T04:41:16;6.60;99.90
31263;DHT22;17892;52.080;9.006;2023-02-01T04:43:48;6.50;99.90
31263;DHT22;17892;52.080;9.006;2023-02-01T04:46:15;6.50;99.90
31263;DHT22;17892;52.080;9.006;2023-02-01T04:48:41;6.50;99.90
31263;DHT22;17892;52.080;9.006;2023-02-01T04:51:07;6.50;99.90
31263;DHT22;17892;52.080;9.006;2023-02-01T04:53:33;6.50;99.90
31263;DHT22;17892;52.080;9.006;2023-02-01T04:55:59;6.50;99.90
31263;DHT22;17892;52.080;9.006;2023-02-01T04:58:25;6.50;99.90
31263;DHT22;17892;52.080;9.006;2023-02-01T05:00:51;6.50;99.90
31263;DHT22;17892;52.080;9.006;2023-02-01T05:03:17;6.50;99.90
31263;DHT22;17892;52.080;9.006;2023-02-01T05:05:43;6.50;99.90
31263;DHT22;17892;52.080;9.006;2023-02-01T05:08:09;6.50;99.90
31263;DHT22;17892;52.080;9.006;2023-02-01T05:10:34;6.40;99.90
31263;DHT22;17892;52.080;9.006;2023-02-01T05:13:00;6.40;99.90
31263;DHT22;17892;52.080;9.006;2023-02-01T05:15:44;6.40;99.90
31263;DHT22;17892;52.080;9.006;2023-02-01T05:18:11;6.40;99.90
31263;DHT22;17892;52.080;9.006;2023-02-01T05:20:37;6.40;99.90
31263;DHT22;17892;52.080;9.006;2023-02-01T05:23:03;6.30;99.90
31263;DHT22;17892;52.080;9.006;2023-02-01T05:25:29;6.30;99.90
31263;DHT22;17892;52.080;9.006;2023-02-01T05:27:55;6.30;99.90
31263;DHT22;17892;52.080;9.006;2023-02-01T05:30:21;6.30;99.90
31263;DHT22;17892;52.080;9.006;2023-02-01T05:32:52;6.20;99.90
31263;DHT22;17892;52.080;9.006;2023-02-01T05:35:18;6.20;99.90
31263;DHT22;17892;52.080;9.006;2023-02-01T05:37:44;6.10;99.90
31263;DHT22;17892;52.080;9.006;2023-02-01T05:40:10;6.10;99.90
31263;DHT22;17892;52.080;9.006;2023-02-01T05:42:36;6.10;99.90
31263;DHT22;17892;52.080;9.006;2023-02-01T05:45:02;6.10;99.90
31263;DHT22;17892;52.080;9.006;2023-02-01T05:47:30;6.10;99.90
31263;DHT22;17892;52.080;9.006;2023-02-01T05:49:56;6.00;99.90
31263;DHT22;17892;52.080;9.006;2023-02-01T05:52:22;6.00;99.90
31263;DHT22;17892;52.080;9.006;2023-02-01T05:54:48;6.00;99.90
31263;DHT22;17892;52.080;9.006;2023-02-01T05:57:14;6.00;99.90
31263;DHT22;17892;52.080;9.006;2023-02-01T05:59:40;6.00;99.90
31263;DHT22;17892;52.080;9.006;2023-02-01T06:02:13;6.00;99.90
31263;DHT22;17892;52.080;9.006;2023-02-01T06:04:38;6.00;99.90
31263;DHT22;17892;52.080;9.006;2023-02-01T06:07:05;6.00;99.90
31263;DHT22;17892;52.080;9.006;2023-02-01T06:09:35;6.00;99.90
31263;DHT22;17892;52.080;9.006;2023-02-01T06:12:02;6.00;99.90
31263;DHT22;17892;52.080;9.006;2023-02-01T06:14:29;6.00;99.90
31263;DHT22;17892;52.080;9.006;2023-02-01T06:16:54;5.90;99.90
31263;DHT22;17892;52.080;9.006;2023-02-01T06:19:21;5.90;99.90
31263;DHT22;17892;52.080;9.006;2023-02-01T06:21:47;5.90;99.90
31263;DHT22;17892;52.080;9.006;2023-02-01T06:24:13;5.90;99.90
31263;DHT22;17892;52.080;9.006;2023-02-01T06:26:39;5.90;99.90
31263;DHT22;17892;52.080;9.006;2023-02-01T06:29:06;5.90;99.90
31263;DHT22;17892;52.080;9.006;2023-02-01T06:31:33;5.90;99.90
31263;DHT22;17892;52.080;9.006;2023-02-01T06:33:59;5.90;99.90
31263;DHT22;17892;52.080;9.006;2023-02-01T06:36:24;5.90;99.90
31263;DHT22;17892;52.080;9.006;2023-02-01T06:38:50;5.90;99.90
31263;DHT22;17892;52.080;9.006;2023-02-01T06:41:16;5.90;99.90
31263;DHT22;17892;52.080;9.006;2023-02-01T06:43:42;6.00;99.90
31263;DHT22;17892;52.080;9.006;2023-02-01T06:46:11;6.00;99.90
31263;DHT22;17892;52.080;9.006;2023-02-01T06:48:38;6.00;99.90
31263;DHT22;17892;52.080;9.006;2023-02-01T06:51:04;6.10;99.90
31263;DHT22;17892;52.080;9.006;2023-02-01T06:53:31;6.10;99.90
31263;DHT22;17892;52.080;9.006;2023-02-01T06:55:59;6.10;99.90
31263;DHT22;17892;52.080;9.006;2023-02-01T06:58:31;6.10;99.90
31263;DHT22;17892;52.080;9.006;2023-02-01T07:00:58;6.10;99.90
31263;DHT22;17892;52.080;9.006;2023-02-01T07:03:24;6.10;99.90
31263;DHT22;17892;52.080;9.006;2023-02-01T07:05:49;6.10;99.90
31263;DHT22;17892;52.080;9.006;2023-02-01T07:08:15;6.10;99.90
31263;DHT22;17892;52.080;9.006;2023-02-01T07:10:41;6.10;99.90
31263;DHT22;17892;52.080;9.006;2023-02-01T07:13:07;6.10;99.90
31263;DHT22;17892;52.080;9.006;2023-02-01T07:15:32;6.10;99.90
31263;DHT22;17892;52.080;9.006;2023-02-01T07:17:58;6.10;99.90
31263;DHT22;17892;52.080;9.006;2023-02-01T07:20:24;6.10;99.90
31263;DHT22;17892;52.080;9.006;2023-02-01T07:22:54;6.10;99.90
31263;DHT22;17892;52.080;9.006;2023-02-01T07:25:22;6.10;99.90
31263;DHT22;17892;52.080;9.006;2023-02-01T07:27:48;6.10;99.90
31263;DHT22;17892;52.080;9.006;2023-02-01T07:30:14;6.10;99.90
31263;DHT22;17892;52.080;9.006;2023-02-01T07:32:39;6.10;99.90
31263;DHT22;17892;52.080;9.006;2023-02-01T07:35:05;6.10;99.90
31263;DHT22;17892;52.080;9.006;2023-02-01T07:37:31;6.20;99.90
31263;DHT22;17892;52.080;9.006;2023-02-01T07:39:57;6.20;99.90
31263;DHT22;17892;52.080;9.006;2023-02-01T07:42:22;6.20;99.90
31263;DHT22;17892;52.080;9.006;2023-02-01T07:44:48;6.20;99.90
31263;DHT22;17892;52.080;9.006;2023-02-01T07:47:14;6.30;99.90
31263;DHT22;17892;52.080;9.006;2023-02-01T07:49:40;6.30;99.90
31263;DHT22;17892;52.080;9.006;2023-02-01T07:52:05;6.30;99.90
31263;DHT22;17892;52.080;9.006;2023-02-01T07:54:31;6.40;99.90
31263;DHT22;17892;52.080;9.006;2023-02-01T07:56:57;6.40;99.90
31263;DHT22;17892;52.080;9.006;2023-02-01T07:59:22;6.50;99.90
31263;DHT22;17892;52.080;9.006;2023-02-01T08:01:48;6.50;99.90
31263;DHT22;17892;52.080;9.006;2023-02-01T08:04:13;6.50;99.90
31263;DHT22;17892;52.080;9.006;2023-02-01T08:06:39;6.60;99.90
31263;DHT22;17892;52.080;9.006;2023-02-01T08:09:06;6.60;99.90
31263;DHT22;17892;52.080;9.006;2023-02-01T08:11:36;6.60;99.90
31263;DHT22;17892;52.080;9.006;2023-02-01T08:14:03;6.60;99.90
31263;DHT22;17892;52.080;9.006;2023-02-01T08:16:29;6.70;99.90
31263;DHT22;17892;52.080;9.006;2023-02-01T08:18:55;6.70;99.90
31263;DHT22;17892;52.080;9.006;2023-02-01T08:21:26;6.80;99.90
31263;DHT22;17892;52.080;9.006;2023-02-01T08:24:05;6.80;99.90
31263;DHT22;17892;52.080;9.006;2023-02-01T08:26:31;6.80;99.90
31263;DHT22;17892;52.080;9.006;2023-02-01T08:28:59;6.80;99.90
31263;DHT22;17892;52.080;9.006;2023-02-01T08:31:27;6.80;99.90
31263;DHT22;17892;52.080;9.006;2023-02-01T08:33:56;6.80;99.90
31263;DHT22;17892;52.080;9.006;2023-02-01T08:36:25;6.80;99.90
31263;DHT22;17892;52.080;9.006;2023-02-01T08:38:52;6.80;99.90
31263;DHT22;17892;52.080;9.006;2023-02-01T08:41:20;6.70;99.90
31263;DHT22;17892;52.080;9.006;2023-02-01T08:43:47;6.70;99.90
31263;DHT22;17892;52.080;9.006;2023-02-01T08:46:13;6.70;99.90
31263;DHT22;17892;52.080;9.006;2023-02-01T08:48:40;6.70;99.90
31263;DHT22;17892;52.080;9.006;2023-02-01T08:51:11;6.70;99.90
31263;DHT22;17892;52.080;9.006;2023-02-01T08:53:38;6.80;99.90
31263;DHT22;17892;52.080;9.006;2023-02-01T08:56:06;6.80;99.90
31263;DHT22;17892;52.080;9.006;2023-02-01T08:58:32;6.90;99.90
31263;DHT22;17892;52.080;9.006;2023-02-01T09:01:03;6.90;99.90
31263;DHT22;17892;52.080;9.006;2023-02-01T09:03:33;6.90;99.90
31263;DHT22;17892;52.080;9.006;2023-02-01T09:06:07;7.00;99.90
31263;DHT22;17892;52.080;9.006;2023-02-01T09:08:36;7.00;99.90
31263;DHT22;17892;52.080;9.006;2023-02-01T09:11:07;7.10;99.90
31263;DHT22;17892;52.080;9.006;2023-02-01T09:13:36;7.10;99.90
31263;DHT22;17892;52.080;9.006;2023-02-01T09:16:03;7.20;99.90
31263;DHT22;17892;52.080;9.006;2023-02-01T09:18:29;7.20;99.90
31263;DHT22;17892;52.080;9.006;2023-02-01T09:20:55;7.30;99.90
31263;DHT22;17892;52.080;9.006;2023-02-01T09:23:20;7.30;99.90
31263;DHT22;17892;52.080;9.006;2023-02-01T09:25:47;7.30;99.90
31263;DHT22;17892;52.080;9.006;2023-02-01T09:28:15;7.30;99.90
31263;DHT22;17892;52.080;9.006;2023-02-01T09:30:41;7.30;99.90
31263;DHT22;17892;52.080;9.006;2023-02-01T09:33:07;7.30;99.90
31263;DHT22;17892;52.080;9.006;2023-02-01T09:35:32;7.40;99.90
31263;DHT22;17892;52.080;9.006;2023-02-01T09:37:58;7.40;99.90
31263;DHT22;17892;52.080;9.006;2023-02-01T09:40:24;7.40;99.90
31263;DHT22;17892;52.080;9.006;2023-02-01T09:48:42;7.50;99.90
31263;DHT22;17892;52.080;9.006;2023-02-01T09:51:32;7.60;99.90
31263;DHT22;17892;52.080;9.006;2023-02-01T09:56:44;7.70;99.90
31263;DHT22;17892;52.080;9.006;2023-02-01T10:02:12;7.80;99.90
31263;DHT22;17892;52.080;9.006;2023-02-01T10:04:43;7.90;99.90
31263;DHT22;17892;52.080;9.006;2023-02-01T10:12:39;7.90;99.90
31263;DHT22;17892;52.080;9.006;2023-02-01T10:21:23;8.00;99.90
31263;DHT22;17892;52.080;9.006;2023-02-01T10:24:20;8.00;99.90
31263;DHT22;17892;52.080;9.006;2023-02-01T10:27:02;8.00;99.90
31263;DHT22;17892;52.080;9.006;2023-02-01T10:29:38;8.00;99.90
31263;DHT22;17892;52.080;9.006;2023-02-01T10:32:14;8.00;99.90
31263;DHT22;17892;52.080;9.006;2023-02-01T10:34:44;8.10;99.90
31263;DHT22;17892;52.080;9.006;2023-02-01T10:37:22;8.10;99.90
31263;DHT22;17892;52.080;9.006;2023-02-01T10:39:54;8.20;99.90
31263;DHT22;17892;52.080;9.006;2023-02-01T10:42:24;8.20;99.90
31263;DHT22;17892;52.080;9.006;2023-02-01T10:44:53;8.20;99.90
31263;DHT22;17892;52.080;9.006;2023-02-01T10:47:21;8.20;99.90
31263;DHT22;17892;52.080;9.006;2023-02-01T10:49:58;8.20;99.90
31263;DHT22;17892;52.080;9.006;2023-02-01T10:52:51;8.20;99.90
31263;DHT22;17892;52.080;9.006;2023-02-01T10:55:39;8.20;99.90
31263;DHT22;17892;52.080;9.006;2023-02-01T10:58:26;8.20;99.90
31263;DHT22;17892;52.080;9.006;2023-02-01T11:03:39;8.20;99.90
31263;DHT22;17892;52.080;9.006;2023-02-01T11:06:36;8.10;99.90
31263;DHT22;17892;52.080;9.006;2023-02-01T11:11:33;8.00;99.90
31263;DHT22;17892;52.080;9.006;2023-02-01T11:14:16;8.00;99.90
31263;DHT22;17892;52.080;9.006;2023-02-01T11:16:48;8.00;99.90
31263;DHT22;17892;52.080;9.006;2023-02-01T11:19:16;8.00;99.90
31263;DHT22;17892;52.080;9.006;2023-02-01T11:21:43;8.00;99.90
31263;DHT22;17892;52.080;9.006;2023-02-01T11:24:31;8.00;99.90
31263;DHT22;17892;52.080;9.006;2023-02-01T11:27:02;8.00;99.90
31263;DHT22;17892;52.080;9.006;2023-02-01T11:29:35;8.00;99.90
31263;DHT22;17892;52.080;9.006;2023-02-01T11:32:03;8.00;99.90
31263;DHT22;17892;52.080;9.006;2023-02-01T11:34:48;8.00;99.90
31263;DHT22;17892;52.080;9.006;2023-02-01T11:37:20;8.00;99.90
31263;DHT22;17892;52.080;9.006;2023-02-01T11:39:58;8.00;99.90
31263;DHT22;17892;52.080;9.006;2023-02-01T11:42:26;8.00;99.90
31263;DHT22;17892;52.080;9.006;2023-02-01T11:45:26;8.10;99.90
31263;DHT22;17892;52.080;9.006;2023-02-01T11:47:54;8.00;99.90
31263;DHT22;17892;52.080;9.006;2023-02-01T11:56:38;8.10;99.90
31263;DHT22;17892;52.080;9.006;2023-02-01T12:06:08;8.10;99.90
31263;DHT22;17892;52.080;9.006;2023-02-01T12:11:53;8.10;99.90
31263;DHT22;17892;52.080;9.006;2023-02-01T12:14:36;8.00;99.90
31263;DHT22;17892;52.080;9.006;2023-02-01T12:17:59;7.90;99.90
31263;DHT22;17892;52.080;9.006;2023-02-01T12:24:02;7.70;99.90
31263;DHT22;17892;52.080;9.006;2023-02-01T12:29:56;7.50;99.90
31263;DHT22;17892;52.080;9.006;2023-02-01T12:36:32;7.30;99.90
31263;DHT22;17892;52.080;9.006;2023-02-01T12:42:12;7.10;99.90
31263;DHT22;17892;52.080;9.006;2023-02-01T12:44:50;7.00;99.90
31263;DHT22;17892;52.080;9.006;2023-02-01T12:50:40;6.90;99.90
31263;DHT22;17892;52.080;9.006;2023-02-01T12:53:17;6.80;99.90
31263;DHT22;17892;52.080;9.006;2023-02-01T12:55:55;6.70;99.90
31263;DHT22;17892;52.080;9.006;2023-02-01T12:58:48;6.70;99.90
31263;DHT22;17892;52.080;9.006;2023-02-01T13:01:32;6.60;99.90
31263;DHT22;17892;52.080;9.006;2023-02-01T13:04:14;6.50;99.90
31263;DHT22;17892;52.080;9.006;2023-02-01T13:06:51;6.50;99.90
31263;DHT22;17892;52.080;9.006;2023-02-01T13:10:11;6.50;99.90
31263;DHT22;17892;52.080;9.006;2023-02-01T13:15:27;6.40;99.90
31263;DHT22;17892;52.080;9.006;2023-02-01T13:17:59;6.40;99.90
31263;DHT22;17892;52.080;9.006;2023-02-01T13:20:58;6.30;99.90
31263;DHT22;17892;52.080;9.006;2023-02-01T13:23:31;6.30;99.90
31263;DHT22;17892;52.080;9.006;2023-02-01T13:25:59;6.30;99.90
31263;DHT22;17892;52.080;9.006;2023-02-01T13:28:42;6.30;99.90
31263;DHT22;17892;52.080;9.006;2023-02-01T13:34:03;6.30;99.90
31263;DHT22;17892;52.080;9.006;2023-02-01T13:42:50;6.30;99.90
31263;DHT22;17892;52.080;9.006;2023-02-01T13:45:21;6.30;99.90
31263;DHT22;17892;52.080;9.006;2023-02-01T13:47:51;6.40;99.90
31263;DHT22;17892;52.080;9.006;2023-02-01T13:50:24;6.40;99.90
31263;DHT22;17892;52.080;9.006;2023-02-01T13:52:58;6.40;99.90
31263;DHT22;17892;52.080;9.006;2023-02-01T13:55:32;6.40;99.90
31263;DHT22;17892;52.080;9.006;2023-02-01T13:58:18;6.40;99.90
31263;DHT22;17892;52.080;9.006;2023-02-01T14:00:47;6.40;99.90
31263;DHT22;17892;52.080;9.006;2023-02-01T14:03:16;6.40;99.90
31263;DHT22;17892;52.080;9.006;2023-02-01T14:08:14;6.50;99.90
31263;DHT22;17892;52.080;9.006;2023-02-01T14:10:48;6.50;99.90
31263;DHT22;17892;52.080;9.006;2023-02-01T14:13:33;6.50;99.90
31263;DHT22;17892;52.080;9.006;2023-02-01T14:21:21;6.60;99.90
31263;DHT22;17892;52.080;9.006;2023-02-01T14:34:58;6.70;99.90
31263;DHT22;17892;52.080;9.006;2023-02-01T14:37:27;6.80;99.90
31263;DHT22;17892;52.080;9.006;2023-02-01T14:42:54;6.80;99.90
31263;DHT22;17892;52.080;9.006;2023-02-01T14:55:39;7.10;99.90
31263;DHT22;17892;52.080;9.006;2023-02-01T14:58:43;7.20;99.90
31263;DHT22;17892;52.080;9.006;2023-02-01T15:01:32;7.30;99.90
31263;DHT22;17892;52.080;9.006;2023-02-01T15:04:10;7.30;99.90
31263;DHT22;17892;52.080;9.006;2023-02-01T15:09:20;7.40;99.90
31263;DHT22;17892;52.080;9.006;2023-02-01T15:14:23;7.60;99.90
31263;DHT22;17892;52.080;9.006;2023-02-01T15:16:49;7.60;99.90
31263;DHT22;17892;52.080;9.006;2023-02-01T15:19:23;7.60;99.90
31263;DHT22;17892;52.080;9.006;2023-02-01T15:21:53;7.60;99.90
31263;DHT22;17892;52.080;9.006;2023-02-01T15:24:24;7.60;99.90
31263;DHT22;17892;52.080;9.006;2023-02-01T15:26:52;7.50;99.90
31263;DHT22;17892;52.080;9.006;2023-02-01T15:29:20;7.50;99.90
31263;DHT22;17892;52.080;9.006;2023-02-01T15:31:53;7.50;99.90
31263;DHT22;17892;52.080;9.006;2023-02-01T15:34:20;7.50;99.90
31263;DHT22;17892;52.080;9.006;2023-02-01T15:36:46;7.50;99.90
31263;DHT22;17892;52.080;9.006;2023-02-01T15:41:50;7.50;99.90
31263;DHT22;17892;52.080;9.006;2023-02-01T15:46:57;7.40;99.90
31263;DHT22;17892;52.080;9.006;2023-02-01T15:49:30;7.40;99.90
31263;DHT22;17892;52.080;9.006;2023-02-01T15:51:59;7.40;99.90
31263;DHT22;17892;52.080;9.006;2023-02-01T15:54:31;7.30;99.90
31263;DHT22;17892;52.080;9.006;2023-02-01T15:57:03;7.20;99.90
31263;DHT22;17892;52.080;9.006;2023-02-01T15:59:41;7.20;99.90
31263;DHT22;17892;52.080;9.006;2023-02-01T16:04:53;7.10;99.90
31263;DHT22;17892;52.080;9.006;2023-02-01T16:07:27;7.00;99.90
31263;DHT22;17892;52.080;9.006;2023-02-01T16:09:57;7.00;99.90
31263;DHT22;17892;52.080;9.006;2023-02-01T16:15:00;7.00;99.90
31263;DHT22;17892;52.080;9.006;2023-02-01T16:17:26;7.10;99.90
31263;DHT22;17892;52.080;9.006;2023-02-01T16:19:51;7.00;99.90
31263;DHT22;17892;52.080;9.006;2023-02-01T16:22:17;7.10;99.90
31263;DHT22;17892;52.080;9.006;2023-02-01T16:24:43;7.10;99.90
31263;DHT22;17892;52.080;9.006;2023-02-01T16:27:08;7.10;99.90
31263;DHT22;17892;52.080;9.006;2023-02-01T16:29:34;7.10;99.90
31263;DHT22;17892;52.080;9.006;2023-02-01T16:32:00;7.10;99.90
31263;DHT22;17892;52.080;9.006;2023-02-01T16:34:26;7.20;99.90
31263;DHT22;17892;52.080;9.006;2023-02-01T16:36:51;7.20;99.90
31263;DHT22;17892;52.080;9.006;2023-02-01T16:39:19;7.20;99.90
31263;DHT22;17892;52.080;9.006;2023-02-01T16:41:45;7.30;99.90
31263;DHT22;17892;52.080;9.006;2023-02-01T16:44:11;7.30;99.90
31263;DHT22;17892;52.080;9.006;2023-02-01T16:46:40;7.30;99.90
31263;DHT22;17892;52.080;9.006;2023-02-01T16:49:20;7.40;99.90
31263;DHT22;17892;52.080;9.006;2023-02-01T16:51:49;7.40;99.90
31263;DHT22;17892;52.080;9.006;2023-02-01T16:54:18;7.40;99.90
31263;DHT22;17892;52.080;9.006;2023-02-01T16:56:45;7.40;99.90
31263;DHT22;17892;52.080;9.006;2023-02-01T16:59:11;7.40;99.90
31263;DHT22;17892;52.080;9.006;2023-02-01T17:01:38;7.30;99.90
31263;DHT22;17892;52.080;9.006;2023-02-01T17:04:04;7.30;99.90
31263;DHT22;17892;52.080;9.006;2023-02-01T17:06:30;7.30;99.90
31263;DHT22;17892;52.080;9.006;2023-02-01T17:08:59;7.20;99.90
31263;DHT22;17892;52.080;9.006;2023-02-01T17:11:27;7.20;99.90
31263;DHT22;17892;52.080;9.006;2023-02-01T17:13:56;7.20;99.90
31263;DHT22;17892;52.080;9.006;2023-02-01T17:16:28;7.20;99.90
31263;DHT22;17892;52.080;9.006;2023-02-01T17:19:01;7.10;99.90
31263;DHT22;17892;52.080;9.006;2023-02-01T17:21:41;7.10;99.90
31263;DHT22;17892;52.080;9.006;2023-02-01T17:24:12;7.10;99.90
31263;DHT22;17892;52.080;9.006;2023-02-01T17:26:40;7.00;99.90
31263;DHT22;17892;52.080;9.006;2023-02-01T17:29:06;7.00;99.90
31263;DHT22;17892;52.080;9.006;2023-02-01T17:31:35;7.00;99.90
31263;DHT22;17892;52.080;9.006;2023-02-01T17:34:02;7.00;99.90
31263;DHT22;17892;52.080;9.006;2023-02-01T17:36:28;7.00;99.90
31263;DHT22;17892;52.080;9.006;2023-02-01T17:38:54;7.00;99.90
31263;DHT22;17892;52.080;9.006;2023-02-01T17:41:19;7.00;99.90
31263;DHT22;17892;52.080;9.006;2023-02-01T17:43:52;7.00;99.90
31263;DHT22;17892;52.080;9.006;2023-02-01T17:46:18;6.90;99.90
31263;DHT22;17892;52.080;9.006;2023-02-01T17:48:45;6.90;99.90
31263;DHT22;17892;52.080;9.006;2023-02-01T17:51:22;7.00;99.90
31263;DHT22;17892;52.080;9.006;2023-02-01T17:53:51;6.80;99.90
31263;DHT22;17892;52.080;9.006;2023-02-01T17:56:22;7.00;99.90
31263;DHT22;17892;52.080;9.006;2023-02-01T17:58:49;7.00;99.90
31263;DHT22;17892;52.080;9.006;2023-02-01T18:01:21;7.00;99.90
31263;DHT22;17892;52.080;9.006;2023-02-01T18:03:48;6.90;99.90
31263;DHT22;17892;52.080;9.006;2023-02-01T18:06:16;7.00;99.90
31263;DHT22;17892;52.080;9.006;2023-02-01T18:08:43;7.00;99.90
31263;DHT22;17892;52.080;9.006;2023-02-01T18:11:15;7.00;99.90
31263;DHT22;17892;52.080;9.006;2023-02-01T18:13:42;7.00;99.90
31263;DHT22;17892;52.080;9.006;2023-02-01T18:18:47;7.00;99.90
31263;DHT22;17892;52.080;9.006;2023-02-01T18:21:14;7.00;99.90
31263;DHT22;17892;52.080;9.006;2023-02-01T18:23:40;7.00;99.90
31263;DHT22;17892;52.080;9.006;2023-02-01T18:26:10;7.00;99.90
31263;DHT22;17892;52.080;9.006;2023-02-01T18:28:36;7.00;99.90
31263;DHT22;17892;52.080;9.006;2023-02-01T18:31:03;7.00;99.90
31263;DHT22;17892;52.080;9.006;2023-02-01T18:33:30;7.00;99.90
31263;DHT22;17892;52.080;9.006;2023-02-01T18:35:56;7.00;99.90
31263;DHT22;17892;52.080;9.006;2023-02-01T18:38:22;7.00;99.90
31263;DHT22;17892;52.080;9.006;2023-02-01T18:40:48;7.10;99.90
31263;DHT22;17892;52.080;9.006;2023-02-01T18:43:16;7.00;99.90
31263;DHT22;17892;52.080;9.006;2023-02-01T18:45:43;7.10;99.90
31263;DHT22;17892;52.080;9.006;2023-02-01T18:48:11;7.00;99.90